createdAt,value
2017-12-03T00:01:38.253Z,13.85
2017-12-03T00:04:05.946Z,13.65
2017-12-03T00:06:34.470Z,12.00
2017-12-03T00:09:02.035Z,12.37
2017-12-03T00:11:29.634Z,11.15
2017-12-03T00:13:57.322Z,13.30
2017-12-03T00:16:24.886Z,12.10
2017-12-03T00:18:52.483Z,12.80
2017-12-03T00:21:20.059Z,12.82
2017-12-03T00:23:47.694Z,12.50
2017-12-03T00:26:15.263Z,12.65
2017-12-03T00:28:42.851Z,12.80
2017-12-03T00:31:11.255Z,11.52
2017-12-03T00:33:38.900Z,12.20
2017-12-03T00:36:07.267Z,10.98
2017-12-03T00:38:34.845Z,12.10
2017-12-03T00:41:03.282Z,12.65
2017-12-03T00:43:30.878Z,10.68
2017-12-03T00:45:59.219Z,12.43
2017-12-03T00:48:26.811Z,12.95
2017-12-03T00:50:55.154Z,11.23
2017-12-03T00:53:22.741Z,12.65
2017-12-03T00:55:51.202Z,9.85
2017-12-03T00:58:18.772Z,11.82
2017-12-03T01:00:46.395Z,12.65
2017-12-03T01:03:14.001Z,11.40
2017-12-03T01:05:42.332Z,13.68
2017-12-03T01:08:09.959Z,10.93
2017-12-03T01:10:37.575Z,12.35
2017-12-03T01:13:05.903Z,11.45
2017-12-03T01:15:33.493Z,10.38
2017-12-03T01:18:01.079Z,11.25
2017-12-03T01:20:29.557Z,12.57
2017-12-03T01:22:57.219Z,10.18
2017-12-03T01:25:24.817Z,10.85
2017-12-03T01:27:52.411Z,10.98
2017-12-03T01:30:19.971Z,10.55
2017-12-03T01:32:47.544Z,12.05
2017-12-03T01:35:15.127Z,12.80
2017-12-03T01:37:43.459Z,13.10
2017-12-03T01:40:11.043Z,11.88
2017-12-03T01:42:39.387Z,10.70
2017-12-03T01:45:06.986Z,12.37
2017-12-03T01:47:35.310Z,11.43
2017-12-03T01:50:02.904Z,12.10
2017-12-03T01:52:30.496Z,11.10
2017-12-03T01:54:58.823Z,10.88
2017-12-03T01:57:26.496Z,12.48
2017-12-03T01:59:54.060Z,10.18
2017-12-03T02:02:21.669Z,7.75
2017-12-03T02:04:49.218Z,4.05
2017-12-03T02:07:16.789Z,4.15
2017-12-03T02:09:44.371Z,9.05
2017-12-03T02:12:11.966Z,8.52
2017-12-03T02:14:39.571Z,10.02
2017-12-03T02:17:07.137Z,11.18
2017-12-03T02:19:34.703Z,11.70
2017-12-03T02:22:02.313Z,11.55
2017-12-03T02:24:30.739Z,9.23
2017-12-03T02:26:58.310Z,12.90
2017-12-03T02:29:25.891Z,11.40
2017-12-03T02:31:53.484Z,11.23
2017-12-03T02:34:21.053Z,10.70
2017-12-03T02:36:48.644Z,10.88
2017-12-03T02:39:16.241Z,9.50
2017-12-03T02:41:44.573Z,10.80
2017-12-03T02:44:12.180Z,11.00
2017-12-03T02:46:40.571Z,11.77
2017-12-03T02:49:08.140Z,11.60
2017-12-03T02:51:35.755Z,13.52
2017-12-03T02:54:03.332Z,10.90
2017-12-03T02:56:31.666Z,12.20
2017-12-03T02:58:59.262Z,11.88
2017-12-03T03:01:27.587Z,12.80
2017-12-03T03:03:55.191Z,12.85
2017-12-03T03:06:22.748Z,10.88
2017-12-03T03:08:50.303Z,12.40
2017-12-03T03:11:17.903Z,12.37
2017-12-03T03:13:45.487Z,12.45
2017-12-03T03:16:13.091Z,11.82
2017-12-03T03:18:41.415Z,11.43
2017-12-03T03:21:09.067Z,11.20
2017-12-03T03:23:36.635Z,11.00
2017-12-03T03:26:04.205Z,10.90
2017-12-03T03:28:31.783Z,10.20
2017-12-03T03:30:59.361Z,10.35
2017-12-03T03:33:26.959Z,9.80
2017-12-03T03:35:54.519Z,9.73
2017-12-03T03:38:22.089Z,9.85
2017-12-03T03:40:49.703Z,11.98
2017-12-03T03:43:18.173Z,12.15
2017-12-03T03:45:46.556Z,12.20
2017-12-03T03:48:14.911Z,12.18
2017-12-03T03:50:42.646Z,10.30
2017-12-03T03:53:10.351Z,11.35
2017-12-03T03:55:38.700Z,12.95
2017-12-03T03:58:06.315Z,11.98
2017-12-03T04:00:33.884Z,14.85
2017-12-03T04:03:01.447Z,15.73
2017-12-03T04:05:29.047Z,16.83
2017-12-03T04:07:56.647Z,17.52
2017-12-03T04:10:24.249Z,17.35
2017-12-03T04:12:51.911Z,17.80
2017-12-03T04:15:19.503Z,18.75
2017-12-03T04:17:47.852Z,17.98
2017-12-03T04:20:15.448Z,19.35
2017-12-03T04:22:43.919Z,19.05
2017-12-03T04:25:12.284Z,19.00
2017-12-03T04:27:39.835Z,22.02
2017-12-03T04:30:07.390Z,20.10
2017-12-03T04:32:34.983Z,20.35
2017-12-03T04:35:03.303Z,21.62
2017-12-03T04:37:30.898Z,21.58
2017-12-03T04:39:58.486Z,21.15
2017-12-03T04:42:26.310Z,19.83
2017-12-03T04:44:53.910Z,20.27
2017-12-03T04:47:21.475Z,23.08
2017-12-03T04:49:49.031Z,21.70
2017-12-03T04:52:16.623Z,23.38
2017-12-03T04:54:44.196Z,23.23
2017-12-03T04:57:11.783Z,21.70
2017-12-03T04:59:40.142Z,22.67
2017-12-03T05:02:07.758Z,22.30
2017-12-03T05:04:36.199Z,21.70
2017-12-03T05:07:03.767Z,24.98
2017-12-03T05:09:32.123Z,20.90
2017-12-03T05:11:59.719Z,24.65
2017-12-03T05:14:27.314Z,23.90
2017-12-03T05:16:54.871Z,21.85
2017-12-03T05:19:22.427Z,27.00
2017-12-03T05:21:50.098Z,24.33
2017-12-03T05:24:17.687Z,24.52
2017-12-03T05:26:46.022Z,23.77
2017-12-03T05:29:13.619Z,24.83
2017-12-03T05:31:41.963Z,25.08
2017-12-03T05:34:09.577Z,26.02
2017-12-03T05:36:37.165Z,27.23
2017-12-03T05:39:04.718Z,24.87
2017-12-03T05:41:32.311Z,25.37
2017-12-03T05:43:59.928Z,24.02
2017-12-03T05:46:27.532Z,23.70
2017-12-03T05:48:55.106Z,19.58
2017-12-03T05:51:22.678Z,22.20
2017-12-03T05:53:51.176Z,24.35
2017-12-03T05:56:18.747Z,24.37
2017-12-03T05:58:46.405Z,23.75
2017-12-03T06:01:14.100Z,22.85
2017-12-03T06:03:41.675Z,23.70
2017-12-03T06:06:09.255Z,22.42
2017-12-03T06:08:37.607Z,23.77
2017-12-03T06:11:05.171Z,23.75
2017-12-03T06:13:32.772Z,26.90
2017-12-03T06:16:00.391Z,23.48
2017-12-03T06:18:28.047Z,26.17
2017-12-03T06:20:55.611Z,26.25
2017-12-03T06:23:23.166Z,25.60
2017-12-03T06:25:50.771Z,27.35
2017-12-03T06:28:18.334Z,26.58
2017-12-03T06:30:45.990Z,24.95
2017-12-03T06:33:13.549Z,25.70
2017-12-03T06:35:41.107Z,27.90
2017-12-03T06:38:08.746Z,29.30
2017-12-03T06:40:36.316Z,27.90
2017-12-03T06:43:03.918Z,26.50
2017-12-03T06:45:31.494Z,25.45
2017-12-03T06:47:59.200Z,26.10
2017-12-03T06:50:26.791Z,27.37
2017-12-03T06:52:54.379Z,26.55
2017-12-03T06:55:21.989Z,28.60
2017-12-03T06:57:49.563Z,27.73
2017-12-03T07:00:17.215Z,27.50
2017-12-03T07:02:44.799Z,29.40
2017-12-03T07:05:12.395Z,37.83
2017-12-03T07:07:40.771Z,32.78
2017-12-03T07:10:09.147Z,31.37
2017-12-03T07:12:37.551Z,27.55
2017-12-03T07:15:05.144Z,27.45
2017-12-03T07:17:32.726Z,32.28
2017-12-03T07:20:00.324Z,28.75
2017-12-03T07:22:27.889Z,24.52
2017-12-03T07:24:55.503Z,24.33
2017-12-03T07:27:23.063Z,22.60
2017-12-03T07:29:50.616Z,24.33
2017-12-03T07:32:18.230Z,23.00
2017-12-03T07:34:45.880Z,23.40
2017-12-03T07:37:13.444Z,22.80
2017-12-03T07:39:41.043Z,23.55
2017-12-03T07:42:08.609Z,23.70
2017-12-03T07:44:36.199Z,26.40
2017-12-03T07:47:03.764Z,20.02
2017-12-03T07:49:31.330Z,21.77
2017-12-03T07:51:58.907Z,20.73
2017-12-03T07:54:26.491Z,22.52
2017-12-03T07:56:54.090Z,23.48
2017-12-03T07:59:21.652Z,11.75
2017-12-03T08:01:49.355Z,8.27
2017-12-03T08:04:16.907Z,5.05
2017-12-03T08:06:44.653Z,11.20
2017-12-03T08:09:12.284Z,8.77
2017-12-03T08:11:40.602Z,5.55
2017-12-03T08:14:08.184Z,9.68
2017-12-03T08:16:35.818Z,9.90
2017-12-03T08:19:03.423Z,9.02
2017-12-03T08:21:31.018Z,10.35
2017-12-03T08:23:58.599Z,2.97
2017-12-03T08:26:26.292Z,7.43
2017-12-03T08:28:53.872Z,6.32
2017-12-03T08:31:22.408Z,4.43
2017-12-03T08:33:49.959Z,8.30
2017-12-03T08:36:17.506Z,7.53
2017-12-03T08:38:45.083Z,8.70
2017-12-03T08:41:12.647Z,8.38
2017-12-03T08:43:40.259Z,10.93
2017-12-03T08:46:07.811Z,10.05
2017-12-03T08:48:36.219Z,9.40
2017-12-03T08:51:03.847Z,10.27
2017-12-03T08:53:32.187Z,9.65
2017-12-03T08:55:59.771Z,7.20
2017-12-03T08:58:28.088Z,7.90
2017-12-03T09:00:55.740Z,6.25
2017-12-03T09:03:23.405Z,5.90
2017-12-03T09:05:51.069Z,8.93
2017-12-03T09:08:18.658Z,7.35
2017-12-03T09:10:46.223Z,8.00
2017-12-03T09:13:13.811Z,8.57
2017-12-03T09:15:42.193Z,10.90
2017-12-03T09:18:10.514Z,9.70
2017-12-03T09:20:38.088Z,9.35
2017-12-03T09:23:05.683Z,6.12
2017-12-03T09:25:34.016Z,5.78
2017-12-03T09:28:01.677Z,4.30
2017-12-03T09:30:29.359Z,6.97
2017-12-03T09:32:56.935Z,10.00
2017-12-03T09:35:25.287Z,9.30
2017-12-03T09:37:52.852Z,4.40
2017-12-03T09:40:20.460Z,7.80
2017-12-03T09:42:48.052Z,8.80
2017-12-03T09:45:15.628Z,11.10
2017-12-03T09:47:43.240Z,7.90
2017-12-03T09:50:10.815Z,10.23
2017-12-03T09:52:38.660Z,12.63
2017-12-03T09:55:06.251Z,10.95
2017-12-03T09:57:33.815Z,11.85
2017-12-03T10:00:01.405Z,11.20
2017-12-03T10:02:29.744Z,8.25
2017-12-03T10:04:57.320Z,10.75
2017-12-03T10:07:25.046Z,10.35
2017-12-03T10:09:52.728Z,12.95
2017-12-03T10:12:20.331Z,13.40
2017-12-03T10:14:48.682Z,11.07
2017-12-03T10:17:16.239Z,11.65
2017-12-03T10:19:44.668Z,10.77
2017-12-03T10:22:12.251Z,5.70
2017-12-03T10:24:39.848Z,10.25
2017-12-03T10:27:08.266Z,11.65
2017-12-03T10:29:35.926Z,11.38
2017-12-03T10:32:03.534Z,7.65
2017-12-03T10:34:31.127Z,5.80
2017-12-03T10:36:58.804Z,11.35
2017-12-03T10:39:26.466Z,9.90
2017-12-03T10:41:54.167Z,11.70
2017-12-03T10:44:21.959Z,10.80
2017-12-03T10:46:50.490Z,12.90
2017-12-03T10:49:18.059Z,11.80
2017-12-03T10:51:45.765Z,11.63
2017-12-03T10:54:13.487Z,13.18
2017-12-03T10:56:41.116Z,12.05
2017-12-03T10:59:08.795Z,12.70
2017-12-03T11:01:36.416Z,14.05
2017-12-03T11:04:04.044Z,10.48
2017-12-03T11:06:31.625Z,11.30
2017-12-03T11:09:00.031Z,11.68
2017-12-03T11:11:27.601Z,11.80
2017-12-03T11:13:55.271Z,12.75
2017-12-03T11:16:22.858Z,10.73
2017-12-03T11:18:50.436Z,11.38
2017-12-03T11:21:18.846Z,11.43
2017-12-03T11:23:46.431Z,10.95
2017-12-03T11:26:14.079Z,12.18
2017-12-03T11:28:41.755Z,11.75
2017-12-03T11:31:09.325Z,9.88
2017-12-03T11:33:37.054Z,11.20
2017-12-03T11:36:04.638Z,11.60
2017-12-03T11:38:32.264Z,11.07
2017-12-03T11:40:59.856Z,12.60
2017-12-03T11:43:27.464Z,11.50
2017-12-03T11:45:55.080Z,11.55
2017-12-03T11:48:22.635Z,11.43
2017-12-03T11:50:50.270Z,11.12
2017-12-03T11:53:17.847Z,13.05
2017-12-03T11:55:45.425Z,12.77
2017-12-03T11:58:13.044Z,13.18
2017-12-03T12:00:40.622Z,12.45
2017-12-03T12:03:08.233Z,12.90
2017-12-03T12:05:36.787Z,12.27
2017-12-03T12:08:04.363Z,11.93
2017-12-03T12:10:32.810Z,12.63
2017-12-03T12:13:00.508Z,13.15
2017-12-03T12:15:28.931Z,13.07
2017-12-03T12:17:56.544Z,12.25
2017-12-03T12:20:24.887Z,12.30
2017-12-03T12:22:52.572Z,11.70
2017-12-03T12:25:20.913Z,12.75
2017-12-03T12:27:48.547Z,13.02
2017-12-03T12:30:16.124Z,11.90
2017-12-03T12:32:43.700Z,5.60
2017-12-03T12:35:11.296Z,7.45
2017-12-03T12:37:39.630Z,12.95
2017-12-03T12:40:07.207Z,12.40
2017-12-03T12:42:34.828Z,11.32
2017-12-03T12:45:02.417Z,10.50
2017-12-03T12:47:30.025Z,11.63
2017-12-03T12:49:57.583Z,12.70
2017-12-03T12:52:25.298Z,12.32
2017-12-03T12:54:52.919Z,12.52
2017-12-03T12:57:20.579Z,9.95
2017-12-03T12:59:48.215Z,11.55
2017-12-03T13:02:16.689Z,11.50
2017-12-03T13:04:45.058Z,12.50
2017-12-03T13:07:12.624Z,12.45
2017-12-03T13:09:40.985Z,12.20
2017-12-03T13:12:08.581Z,13.18
2017-12-03T13:14:36.164Z,11.95
2017-12-03T13:17:03.767Z,16.37
2017-12-03T13:19:31.392Z,8.20
2017-12-03T13:21:59.004Z,7.95
2017-12-03T13:24:27.412Z,6.28
2017-12-03T13:26:55.014Z,13.30
2017-12-03T13:29:22.595Z,11.43
2017-12-03T13:31:51.001Z,6.20
2017-12-03T13:34:18.663Z,10.23
2017-12-03T13:36:46.232Z,4.80
2017-12-03T13:39:13.829Z,3.37
2017-12-03T13:41:41.440Z,12.40
2017-12-03T13:44:09.035Z,7.30
2017-12-03T13:46:36.599Z,7.30
2017-12-03T13:49:04.191Z,7.78
2017-12-03T13:51:32.548Z,6.93
2017-12-03T13:54:00.131Z,9.32
2017-12-03T13:56:28.500Z,6.10
2017-12-03T13:58:56.827Z,6.25
2017-12-03T14:01:24.444Z,11.50
2017-12-03T14:03:52.806Z,8.40
2017-12-03T14:06:21.196Z,14.07
2017-12-03T14:08:49.806Z,11.75
2017-12-03T14:11:17.375Z,6.40
2017-12-03T14:13:45.025Z,11.90
2017-12-03T14:16:12.672Z,10.55
2017-12-03T14:18:40.241Z,7.78
2017-12-03T14:21:07.862Z,8.23
2017-12-03T14:23:36.223Z,12.02
2017-12-03T14:26:03.829Z,4.80
2017-12-03T14:28:31.464Z,7.53
2017-12-03T14:30:59.807Z,16.55
2017-12-03T14:33:27.434Z,15.23
2017-12-03T14:35:55.004Z,15.93
2017-12-03T14:38:22.603Z,10.38
2017-12-03T14:40:50.146Z,10.30
2017-12-03T14:43:17.765Z,16.42
2017-12-03T14:45:45.332Z,14.25
2017-12-03T14:48:13.111Z,16.25
2017-12-03T14:50:40.723Z,10.77
2017-12-03T14:53:09.064Z,13.25
2017-12-03T14:55:36.929Z,14.40
2017-12-03T14:58:04.640Z,16.17
2017-12-03T15:00:32.218Z,18.20
2017-12-03T15:02:59.817Z,15.23
2017-12-03T15:05:28.960Z,2.95
2017-12-03T15:07:56.528Z,16.42
2017-12-03T15:10:24.107Z,18.23
2017-12-03T15:12:51.712Z,17.10
2017-12-03T15:15:20.143Z,12.80
2017-12-03T15:17:47.829Z,13.65
2017-12-03T15:20:15.435Z,15.80
2017-12-03T15:22:43.118Z,13.73
2017-12-03T15:25:12.378Z,11.95
2017-12-03T15:27:40.782Z,17.95
2017-12-03T15:30:08.370Z,17.35
2017-12-03T15:32:35.958Z,17.60
2017-12-03T15:35:04.340Z,17.42
2017-12-03T15:37:32.706Z,17.33
2017-12-03T15:40:00.335Z,16.42
2017-12-03T15:42:28.081Z,15.43
2017-12-03T15:44:55.641Z,10.18
2017-12-03T15:47:23.290Z,17.92
2017-12-03T15:49:50.868Z,16.27
2017-12-03T15:52:18.451Z,16.83
2017-12-03T15:54:46.170Z,15.27
2017-12-03T15:57:13.744Z,17.62
2017-12-03T15:59:41.351Z,15.68
2017-12-03T16:02:08.947Z,14.25
2017-12-03T16:04:36.563Z,14.60
2017-12-03T16:07:04.179Z,16.40
2017-12-03T16:09:31.749Z,16.23
2017-12-03T16:11:59.380Z,17.12
2017-12-03T16:14:26.956Z,16.02
2017-12-03T16:16:54.528Z,8.95
2017-12-03T16:19:22.124Z,14.95
2017-12-03T16:21:50.495Z,13.90
2017-12-03T16:24:18.116Z,14.77
2017-12-03T16:26:45.709Z,17.98
2017-12-03T16:29:14.807Z,15.23
2017-12-03T16:31:42.430Z,15.15
2017-12-03T16:34:10.004Z,7.78
2017-12-03T16:36:37.578Z,13.60
2017-12-03T16:39:05.209Z,10.65
2017-12-03T16:41:32.822Z,8.60
2017-12-03T16:44:01.260Z,13.02
2017-12-03T16:46:28.996Z,16.75
2017-12-03T16:48:56.548Z,16.85
2017-12-03T16:51:24.160Z,16.60
2017-12-03T16:53:51.747Z,17.25
2017-12-03T16:56:19.629Z,16.00
2017-12-03T16:58:47.213Z,18.52
2017-12-03T17:01:14.786Z,13.20
2017-12-03T17:03:42.385Z,16.35
2017-12-03T17:06:10.821Z,17.02
2017-12-03T17:08:38.425Z,17.90
2017-12-03T17:11:06.781Z,17.60
2017-12-03T17:13:34.385Z,20.05
2017-12-03T17:16:01.971Z,18.00
2017-12-03T17:18:29.508Z,8.27
2017-12-03T17:20:57.215Z,18.40
2017-12-03T17:23:24.851Z,13.02
2017-12-03T17:25:52.458Z,14.82
2017-12-03T17:28:20.824Z,3.67
2017-12-03T17:30:49.233Z,12.45
2017-12-03T17:33:16.796Z,15.85
2017-12-03T17:35:44.397Z,16.20
2017-12-03T17:38:12.000Z,15.75
2017-12-03T17:40:45.813Z,11.93
2017-12-03T17:43:14.279Z,14.95
2017-12-03T17:45:41.853Z,16.25
2017-12-03T17:48:09.457Z,14.15
2017-12-03T17:50:37.015Z,14.70
2017-12-03T17:53:04.625Z,16.58
2017-12-03T17:55:32.208Z,14.95
2017-12-03T17:57:59.776Z,10.13
2017-12-03T18:00:27.407Z,16.00
2017-12-03T18:02:54.991Z,9.35
2017-12-03T18:05:22.568Z,11.18
2017-12-03T18:07:50.174Z,5.68
2017-12-03T18:10:17.773Z,15.60
2017-12-03T18:12:45.367Z,14.77
2017-12-03T18:15:13.723Z,13.73
2017-12-03T18:17:41.343Z,10.90
2017-12-03T18:20:09.080Z,15.32
2017-12-03T18:22:37.423Z,7.12
2017-12-03T18:25:05.024Z,14.75
2017-12-03T18:27:32.603Z,7.25
2017-12-03T18:30:00.288Z,13.77
2017-12-03T18:32:27.991Z,12.68
2017-12-03T18:34:56.370Z,7.78
2017-12-03T18:37:24.754Z,15.48
2017-12-03T18:39:53.083Z,11.18
2017-12-03T18:42:20.707Z,11.25
2017-12-03T18:44:48.282Z,12.23
2017-12-03T18:47:15.888Z,14.65
2017-12-03T18:49:43.463Z,9.27
2017-12-03T18:52:11.846Z,11.77
2017-12-03T18:54:39.640Z,12.82
2017-12-03T18:57:07.336Z,4.82
2017-12-03T18:59:34.940Z,11.45
2017-12-03T19:02:02.518Z,5.35
2017-12-03T19:04:30.095Z,10.45
2017-12-03T19:06:57.709Z,5.60
2017-12-03T19:09:25.292Z,7.25
2017-12-03T19:11:52.888Z,11.00
2017-12-03T19:14:20.472Z,12.18
2017-12-03T19:16:48.876Z,8.88
2017-12-03T19:19:16.596Z,10.93
2017-12-03T19:21:44.200Z,8.43
2017-12-03T19:24:11.819Z,10.90
2017-12-03T19:26:39.438Z,11.82
2017-12-03T19:29:07.012Z,14.20
2017-12-03T19:31:34.624Z,11.18
2017-12-03T19:34:02.220Z,8.50
2017-12-03T19:36:29.856Z,14.25
2017-12-03T19:38:57.487Z,13.80
2017-12-03T19:41:25.933Z,14.90
2017-12-03T19:43:53.659Z,6.05
2017-12-03T19:46:21.276Z,14.25
2017-12-03T19:48:48.881Z,15.82
2017-12-03T19:51:16.492Z,14.80
2017-12-03T19:53:44.206Z,16.27
2017-12-03T19:56:11.859Z,14.75
2017-12-03T19:58:39.471Z,14.73
2017-12-03T20:01:07.074Z,15.93
2017-12-03T20:03:34.713Z,9.68
2017-12-03T20:06:03.248Z,11.00
2017-12-03T20:08:30.851Z,14.45
2017-12-03T20:10:59.389Z,16.23
2017-12-03T20:13:26.984Z,15.07
2017-12-03T20:15:55.459Z,14.30
2017-12-03T20:18:23.818Z,11.80
2017-12-03T20:20:51.411Z,9.23
2017-12-03T20:23:19.755Z,7.87
2017-12-03T20:25:47.383Z,10.95
2017-12-03T20:28:14.955Z,6.15
2017-12-03T20:30:42.590Z,14.68
2017-12-03T20:33:10.658Z,4.72
2017-12-03T20:35:39.047Z,13.25
2017-12-03T20:38:06.651Z,14.43
2017-12-03T20:40:34.244Z,15.25
2017-12-03T20:43:01.880Z,16.50
2017-12-03T20:45:30.288Z,12.75
2017-12-03T20:47:58.036Z,11.32
2017-12-03T20:50:26.368Z,14.60
2017-12-03T20:52:53.968Z,13.00
2017-12-03T20:55:22.343Z,14.60
2017-12-03T20:57:50.753Z,14.60
2017-12-03T21:00:18.511Z,13.70
2017-12-03T21:02:46.124Z,9.60
2017-12-03T21:05:13.716Z,15.07
2017-12-03T21:07:41.312Z,17.90
2017-12-03T21:10:08.925Z,18.15
2017-12-03T21:12:36.505Z,16.48
2017-12-03T21:15:04.103Z,14.40
2017-12-03T21:17:31.801Z,16.52
2017-12-03T21:20:00.211Z,17.92
2017-12-03T21:22:27.785Z,11.63
2017-12-03T21:24:55.428Z,16.37
2017-12-03T21:27:23.186Z,20.12
2017-12-03T21:29:50.828Z,18.65
2017-12-03T21:32:18.438Z,13.88
2017-12-03T21:34:46.006Z,18.73
2017-12-03T21:37:13.687Z,15.13
2017-12-03T21:39:42.065Z,20.95
2017-12-03T21:42:09.703Z,19.12
2017-12-03T21:44:37.288Z,6.82
2017-12-03T21:47:05.734Z,18.17
2017-12-03T21:49:33.342Z,20.75
2017-12-03T21:52:00.904Z,20.20
2017-12-03T21:54:28.492Z,11.23
2017-12-03T21:56:56.089Z,17.42
2017-12-03T21:59:24.511Z,15.68
2017-12-03T22:01:52.111Z,19.40
2017-12-03T22:04:19.732Z,20.65
2017-12-03T22:06:47.416Z,16.50
2017-12-03T22:09:14.987Z,17.90
2017-12-03T22:11:42.559Z,17.37
2017-12-03T22:14:10.168Z,17.90
2017-12-03T22:16:37.749Z,19.30
2017-12-03T22:19:05.356Z,19.77
2017-12-03T22:21:33.766Z,20.90
2017-12-03T22:24:01.368Z,20.27
2017-12-03T22:26:28.981Z,17.73
2017-12-03T22:28:56.546Z,19.02
2017-12-03T22:31:24.131Z,17.77
2017-12-03T22:33:51.724Z,19.62
2017-12-03T22:36:20.099Z,19.70
2017-12-03T22:38:48.488Z,21.00
2017-12-03T22:41:16.951Z,18.73
2017-12-03T22:43:44.608Z,18.12
2017-12-03T22:46:12.176Z,17.40
2017-12-03T22:48:40.546Z,19.15
2017-12-03T22:51:08.155Z,19.60
2017-12-03T22:53:35.710Z,19.65
2017-12-03T22:56:03.270Z,17.50
2017-12-03T22:58:30.938Z,11.40
2017-12-03T23:00:58.508Z,11.15
2017-12-03T23:03:26.107Z,18.35
2017-12-03T23:05:54.436Z,16.80
2017-12-03T23:08:22.002Z,8.65
2017-12-03T23:10:49.667Z,14.43
2017-12-03T23:13:17.239Z,4.65
2017-12-03T23:15:44.843Z,12.23
2017-12-03T23:18:12.518Z,9.90
2017-12-03T23:20:40.123Z,14.80
2017-12-03T23:23:07.686Z,17.80
2017-12-03T23:25:35.375Z,11.48
2017-12-03T23:28:03.727Z,9.43
2017-12-03T23:30:31.287Z,14.45
2017-12-03T23:32:58.884Z,16.33
2017-12-03T23:35:26.552Z,16.10
2017-12-03T23:37:54.109Z,16.02
2017-12-03T23:40:21.669Z,14.75
2017-12-03T23:42:49.235Z,12.73
2017-12-03T23:45:16.845Z,14.00
2017-12-03T23:47:44.401Z,13.05
2017-12-03T23:50:12.004Z,15.18
2017-12-03T23:52:39.562Z,6.53
2017-12-03T23:55:07.141Z,9.43
2017-12-03T23:57:34.726Z,14.75
